Terminal Aerodrome Forecast
Issued by NWS

Home | Current Version | Previous Version | Text Only | Print | Product List | Glossary On
Versions: 1 2 3 4 5 6 7 8 9 10 11 12
000
FTUS46 KMTR 030539
TAFSJC
TAF
KSJC 030539Z 0306/0406 28003KT P6SM FEW012
     FM030700 VRB03KT P6SM FEW012
      TEMPO 0313/0317 FEW012 BKN020
     FM031700 VRB03KT P6SM SCT020
     FM032100 31015G20KT P6SM FEW200=

USA.gov is the U.S. government's official web portal to all federal, state and local government web resources and services.